Time;durP1;ratioP1;P1;durP2;ratioP2;P2;SDS_P1;SDS_P2;PMS_P1;PMS_P2;Temp;Humidity;BMP_temperature;BMP_pressure;BME280_temperature;BME280_humidity;BME280_pressure;Samples;Min_cycle;Max_cycle;Signal;HPM_P1;HPM_P2
2023/10/15 04:17:07;;;;;;;8.38;2.80;;;;;;;6.61;100.00;101741.41;5115174;27;20383;-86
2023/10/15 04:19:35;;;;;;;5.13;2.70;;;;;;;6.58;100.00;101741.72;5112816;28;20097;-86
2023/10/15 04:22:08;;;;;;;10.38;2.70;;;;;;;6.51;100.00;101730.78;5096564;28;20036;-86
2023/10/15 04:24:36;;;;;;;6.93;3.08;;;;;;;6.40;100.00;101721.16;5113025;28;20092;-86
2023/10/15 04:27:19;;;;;;;8.32;3.10;;;;;;;6.34;100.00;101721.81;5112813;28;20039;-86
2023/10/15 04:29:51;;;;;;;6.07;3.60;;;;;;;6.35;100.00;101703.78;5113192;28;20067;-86
2023/10/15 04:32:28;;;;;;;2.37;0.90;;;;;;;6.14;100.00;101697.00;5113464;28;20070;-86
2023/10/15 04:35:08;;;;;;;4.45;1.40;;;;;;;6.05;100.00;101706.09;5113072;28;20031;-86
2023/10/15 04:37:35;;;;;;;8.48;3.45;;;;;;;6.05;100.00;101698.84;5113305;28;20046;-86
2023/10/15 04:40:04;;;;;;;11.45;4.20;;;;;;;6.05;100.00;101709.63;5112609;28;20055;-86
2023/10/15 04:45:55;;;;;;;7.17;3.23;;;;;;;6.05;100.00;101715.00;5114205;28;20509;-87
2023/10/15 04:51:44;;;;;;;7.15;2.47;;;;;;;5.97;100.00;101690.75;5113818;28;20394;-86
2023/10/15 04:54:17;;;;;;;5.18;1.90;;;;;;;5.96;100.00;101678.25;5112394;28;20039;-86
2023/10/15 04:56:43;;;;;;;8.75;2.00;;;;;;;5.97;100.00;101669.19;5112386;28;20075;-86
2023/10/15 04:59:13;;;;;;;5.23;1.97;;;;;;;5.96;100.00;101664.78;5112741;28;20063;-86
2023/10/15 05:01:38;;;;;;;8.85;1.80;;;;;;;5.92;100.00;101672.38;5112776;28;20039;-86
2023/10/15 05:04:04;;;;;;;2.23;0.90;;;;;;;5.87;100.00;101669.31;5112325;28;20036;-86
2023/10/15 05:06:29;;;;;;;3.00;0.87;;;;;;;5.87;100.00;101665.78;5112554;28;20039;-86
2023/10/15 05:08:55;;;;;;;2.65;1.00;;;;;;;5.79;100.00;101664.75;5112482;28;20051;-86
2023/10/15 05:11:24;;;;;;;2.78;0.90;;;;;;;5.77;100.00;101660.53;5113637;28;20373;-86
2023/10/15 05:13:52;;;;;;;4.63;1.00;;;;;;;5.74;100.00;101669.78;5114018;28;20036;-86
2023/10/15 05:16:20;;;;;;;4.53;1.55;;;;;;;5.77;100.00;101684.75;5095521;28;20048;-86
2023/10/15 05:19:42;;;;;;;2.97;1.08;;;;;;;5.74;100.00;101680.56;5095417;28;20050;-86
2023/10/15 05:22:11;;;;;;;3.65;1.80;;;;;;;5.66;100.00;101677.84;5113303;28;20475;-86
2023/10/15 05:24:36;;;;;;;10.85;2.30;;;;;;;5.65;100.00;101703.06;5112880;28;20100;-86
2023/10/15 05:27:02;;;;;;;5.17;2.60;;;;;;;5.63;100.00;101705.91;5112355;28;20539;-86
2023/10/15 05:29:28;;;;;;;7.47;2.80;;;;;;;5.68;100.00;101758.44;5112594;28;20036;-86
2023/10/15 05:31:54;;;;;;;3.17;1.23;;;;;;;5.45;100.00;101730.22;5112126;28;20415;-86
2023/10/15 05:34:22;;;;;;;4.25;1.45;;;;;;;5.39;100.00;101740.81;5113481;28;20120;-86
2023/10/15 05:36:48;;;;;;;3.70;0.90;;;;;;;5.45;100.00;101746.38;5095723;28;20042;-86
2023/10/15 05:39:15;;;;;;;3.80;1.10;;;;;;;5.43;100.00;101751.09;5114895;28;20402;-86
2023/10/15 05:41:42;;;;;;;2.08;0.52;;;;;;;5.50;100.00;101769.28;5115972;28;20123;-86
2023/10/15 05:44:07;;;;;;;6.55;0.90;;;;;;;5.43;100.00;101775.31;5098764;28;20048;-86
2023/10/15 05:46:33;;;;;;;5.80;0.70;;;;;;;5.40;100.00;101778.31;5133075;27;20043;-86
2023/10/15 05:48:59;;;;;;;5.40;0.50;;;;;;;5.37;100.00;101772.41;5115839;28;20155;-86
2023/10/15 05:51:26;;;;;;;4.73;0.70;;;;;;;5.25;100.00;101759.19;5115865;28;20093;-86
2023/10/15 05:53:53;;;;;;;4.32;0.50;;;;;;;5.22;100.00;101758.69;5115685;28;20101;-86
2023/10/15 05:56:21;;;;;;;1.98;0.40;;;;;;;5.18;100.00;101751.91;5116263;28;20039;-86
2023/10/15 05:58:51;;;;;;;2.33;0.60;;;;;;;5.18;100.00;101746.53;5115693;28;20028;-86
2023/10/15 06:01:17;;;;;;;3.08;0.75;;;;;;;5.18;100.00;101736.66;5116399;28;20048;-86
2023/10/15 06:03:43;;;;;;;4.23;0.53;;;;;;;5.15;100.00;101736.09;5117162;28;20044;-85
2023/10/15 06:06:08;;;;;;;4.17;0.53;;;;;;;5.19;100.00;101759.00;5117118;28;20487;-85
2023/10/15 06:08:36;;;;;;;4.15;0.60;;;;;;;5.18;100.00;101749.22;5115055;28;20084;-85
2023/10/15 06:11:02;;;;;;;2.05;0.70;;;;;;;5.20;100.00;101756.16;5115381;28;20392;-85
2023/10/15 06:13:30;;;;;;;5.73;0.50;;;;;;;5.18;100.00;101755.47;5132175;27;20032;-85
2023/10/15 06:15:56;;;;;;;3.03;0.60;;;;;;;5.21;100.00;101747.09;5115109;28;20051;-86
2023/10/15 06:18:22;;;;;;;4.50;0.90;;;;;;;5.21;100.00;101741.72;5099325;28;20410;-85
2023/10/15 06:20:47;;;;;;;2.07;0.70;;;;;;;5.30;100.00;101777.59;5116344;28;20035;-85
2023/10/15 06:23:13;;;;;;;4.43;0.80;;;;;;;5.26;100.00;101762.75;5097861;28;20044;-86
2023/10/15 06:25:39;;;;;;;5.75;0.90;;;;;;;5.32;100.00;101772.03;5116071;28;20036;-86
2023/10/15 06:28:16;;;;;;;1.35;0.60;;;;;;;5.27;100.00;101762.59;5115063;28;20445;-85
2023/10/15 06:30:44;;;;;;;3.80;0.70;;;;;;;5.29;100.00;101767.81;5115940;28;20034;-86
2023/10/15 06:33:16;;;;;;;6.03;0.87;;;;;;;5.31;100.00;101783.81;5115956;28;20074;-86
2023/10/15 06:35:44;;;;;;;5.03;0.80;;;;;;;5.33;100.00;101771.03;5098171;28;20074;-86
2023/10/15 06:38:09;;;;;;;3.38;0.80;;;;;;;5.35;100.00;101774.41;5118100;27;20088;-85
2023/10/15 06:40:37;;;;;;;4.37;1.20;;;;;;;5.36;100.00;101768.00;5118360;27;20035;-86
2023/10/15 06:43:05;;;;;;;3.22;1.20;;;;;;;5.39;100.00;101775.78;5136642;27;20088;-85
2023/10/15 06:45:33;;;;;;;5.38;2.05;;;;;;;5.37;100.00;101772.41;5118279;27;20452;-86
2023/10/15 06:48:02;;;;;;;4.53;1.10;;;;;;;5.31;100.00;101759.59;5118097;27;20042;-86
2023/10/15 06:50:33;;;;;;;4.18;1.20;;;;;;;5.29;100.00;101769.66;5100903;27;20063;-86
2023/10/15 06:53:01;;;;;;;4.30;1.02;;;;;;;5.29;100.00;101764.28;5101008;27;20536;-85
2023/10/15 06:55:31;;;;;;;3.38;0.80;;;;;;;5.35;100.00;101760.97;5117933;27;20032;-85
2023/10/15 06:57:57;;;;;;;5.68;1.13;;;;;;;5.43;100.00;101761.00;5101409;27;20074;-86
2023/10/15 07:00:24;;;;;;;4.70;1.00;;;;;;;5.47;100.00;101770.44;5118300;27;20067;-85
2023/10/15 07:02:54;;;;;;;3.78;1.00;;;;;;;5.45;100.00;101775.16;5136428;27;20103;-86
2023/10/15 07:05:25;;;;;;;3.15;0.80;;;;;;;5.48;100.00;101777.53;5117716;27;20039;-85
2023/10/15 07:07:51;;;;;;;5.25;1.20;;;;;;;5.49;100.00;101779.19;5117221;27;20398;-85
2023/10/15 07:10:21;;;;;;;4.53;1.13;;;;;;;5.53;100.00;101791.34;5118362;27;20038;-86
2023/10/15 07:12:50;;;;;;;5.32;1.17;;;;;;;5.64;100.00;101798.31;5117934;27;20628;-85
2023/10/15 07:15:16;;;;;;;2.30;1.08;;;;;;;5.74;100.00;101790.09;5117273;27;20057;-86
2023/10/15 07:17:43;;;;;;;2.65;1.10;;;;;;;5.74;100.00;101809.81;5117425;27;20122;-85
2023/10/15 07:20:21;;;;;;;5.50;1.40;;;;;;;5.74;100.00;101801.75;5117174;27;20055;-86
2023/10/15 07:22:56;;;;;;;4.13;1.40;;;;;;;5.82;100.00;101802.75;5118316;27;20058;-86
2023/10/15 07:25:24;;;;;;;4.53;1.58;;;;;;;6.02;100.00;101806.09;5101026;27;20089;-86
2023/10/15 07:27:53;;;;;;;4.72;1.50;;;;;;;6.22;100.00;101817.47;5135899;27;20162;-86
2023/10/15 07:30:22;;;;;;;5.20;2.13;;;;;;;6.20;100.00;101823.03;5117444;27;20035;-86
2023/10/15 07:32:53;;;;;;;5.63;1.60;;;;;;;6.23;100.00;101825.41;5100650;27;20050;-86
2023/10/15 07:35:21;;;;;;;7.97;1.88;;;;;;;6.25;100.00;101831.47;5118187;27;20374;-86
2023/10/15 07:37:49;;;;;;;3.75;1.52;;;;;;;6.20;100.00;101843.72;5116890;27;20128;-85
2023/10/15 07:40:17;;;;;;;4.53;1.60;;;;;;;6.26;100.00;101849.31;5135418;27;20042;-86
2023/10/15 07:42:53;;;;;;;4.00;1.48;;;;;;;6.27;100.00;101847.47;5117320;27;20470;-86
2023/10/15 07:45:27;;;;;;;7.00;1.67;;;;;;;6.19;100.00;101832.13;5117047;27;20035;-85
2023/10/15 07:47:52;;;;;;;5.60;1.50;;;;;;;6.29;100.00;101819.34;5116883;27;20061;-85
2023/10/15 07:50:18;;;;;;;8.73;1.92;;;;;;;6.27;100.00;101815.13;5117074;27;20526;-85
2023/10/15 07:52:46;;;;;;;3.27;1.20;;;;;;;6.33;100.00;101819.84;5100494;27;20133;-86
2023/10/15 07:55:13;;;;;;;11.07;1.50;;;;;;;6.48;100.00;101828.16;5099613;27;20644;-86
2023/10/15 07:57:39;;;;;;;6.47;1.20;;;;;;;6.64;100.00;101843.53;5117083;27;20043;-86
2023/10/15 08:00:15;;;;;;;5.75;1.10;;;;;;;6.68;100.00;101832.25;5116862;27;20031;-86
2023/10/15 08:02:49;;;;;;;5.75;1.38;;;;;;;6.78;100.00;101842.91;5135502;27;20039;-85
2023/10/15 08:05:15;;;;;;;5.03;1.40;;;;;;;6.89;100.00;101847.13;5099915;27;20084;-85
2023/10/15 08:07:41;;;;;;;7.82;1.05;;;;;;;6.91;100.00;101845.13;5134793;27;20035;-86
2023/10/15 08:10:08;;;;;;;3.15;0.60;;;;;;;6.92;100.00;101856.75;5116712;27;20041;-86
2023/10/15 08:12:34;;;;;;;3.25;0.90;;;;;;;6.88;100.00;101866.16;5116206;27;20045;-85
2023/10/15 08:15:00;;;;;;;5.53;0.80;;;;;;;6.84;100.00;101868.38;5116127;27;20031;-85
2023/10/15 08:17:29;;;;;;;5.07;0.80;;;;;;;6.79;100.00;101870.69;5115793;27;20043;-85
2023/10/15 08:19:55;;;;;;;8.57;0.70;;;;;;;6.76;100.00;101868.34;5116470;27;20031;-86
2023/10/15 08:22:25;;;;;;;5.93;0.90;;;;;;;6.78;100.00;101891.44;5116196;27;20031;-85
2023/10/15 08:24:50;;;;;;;5.03;0.70;;;;;;;6.65;100.00;101893.78;5099684;28;20570;-85
2023/10/15 08:27:16;;;;;;;5.03;1.00;;;;;;;6.65;100.00;101896.47;5116553;27;20122;-85
2023/10/15 08:29:41;;;;;;;5.53;0.90;;;;;;;6.67;100.00;101889.06;5116350;28;20042;-86
2023/10/15 08:32:13;;;;;;;6.40;0.88;;;;;;;6.83;100.00;101907.13;5117274;28;20031;-86
2023/10/15 08:34:39;;;;;;;8.25;0.90;;;;;;;6.81;100.00;101918.09;5134512;28;20467;-86
2023/10/15 08:37:13;;;;;;;5.77;0.70;;;;;;;6.72;100.00;101927.19;5134780;28;20064;-85
2023/10/15 08:43:25;;;;;;;6.25;1.08;;;;;;;6.72;100.00;101948.75;5134727;28;20112;-86
2023/10/15 08:45:53;;;;;;;8.77;0.90;;;;;;;6.74;100.00;101940.50;5116283;28;20034;-85
2023/10/15 08:48:19;;;;;;;5.47;0.90;;;;;;;6.73;100.00;101949.59;5134122;28;20094;-86
2023/10/15 08:50:48;;;;;;;4.18;0.90;;;;;;;6.87;100.00;101958.94;5116210;28;20063;-85
2023/10/15 08:53:22;;;;;;;5.20;0.50;;;;;;;6.88;100.00;101941.72;5116339;28;20042;-86
2023/10/15 08:55:47;;;;;;;5.03;0.70;;;;;;;6.87;100.00;101958.94;5116172;28;20039;-86
2023/10/15 08:58:22;;;;;;;3.73;0.80;;;;;;;6.87;100.00;101975.94;5116975;28;20046;-85
2023/10/15 09:00:51;;;;;;;5.40;0.80;;;;;;;6.80;100.00;101985.69;5134506;28;20114;-86
2023/10/15 09:03:18;;;;;;;5.22;1.42;;;;;;;6.79;100.00;101978.59;5115622;28;20046;-86
2023/10/15 09:05:52;;;;;;;6.35;1.33;;;;;;;6.87;100.00;101981.34;5116091;28;20038;-86
2023/10/15 09:08:20;;;;;;;4.75;0.98;;;;;;;6.88;100.00;101990.28;5116451;28;20031;-86
2023/10/15 09:10:46;;;;;;;4.32;0.73;;;;;;;6.87;100.00;101986.75;5116003;28;20040;-86
2023/10/15 09:13:15;;;;;;;4.60;1.00;;;;;;;6.90;100.00;101996.38;5116644;27;20491;-86
2023/10/15 09:15:49;;;;;;;4.30;0.80;;;;;;;6.93;100.00;101998.75;5119730;27;20051;-86
2023/10/15 09:18:17;;;;;;;3.85;0.70;;;;;;;6.94;100.00;102001.28;5119785;27;20126;-86
2023/10/15 09:20:50;;;;;;;3.80;0.70;;;;;;;6.95;100.00;102010.19;5138351;27;20041;-86
2023/10/15 09:23:23;;;;;;;3.78;0.93;;;;;;;6.93;100.00;102012.22;5119623;27;20118;-85
2023/10/15 09:25:52;;;;;;;6.68;0.80;;;;;;;7.00;100.00;102015.97;5120110;27;20130;-86
2023/10/15 09:28:17;;;;;;;3.33;1.27;;;;;;;7.05;100.00;102008.22;5119823;27;20043;-86
2023/10/15 09:30:46;;;;;;;3.70;0.50;;;;;;;7.00;100.00;102007.88;5102552;27;20406;-86
2023/10/15 09:33:16;;;;;;;2.75;0.60;;;;;;;7.11;100.00;102004.84;5120195;27;20474;-86
2023/10/15 09:35:42;;;;;;;2.67;0.65;;;;;;;7.26;100.00;102004.22;5119163;27;20049;-86
2023/10/15 09:38:13;;;;;;;4.78;0.90;;;;;;;7.48;100.00;101997.34;5119233;27;20397;-86
2023/10/15 09:40:44;;;;;;;3.40;0.68;;;;;;;7.80;100.00;102010.03;5119630;27;20067;-86
2023/10/15 09:43:16;;;;;;;3.58;0.63;;;;;;;7.89;100.00;102010.88;5138587;27;20065;-85
2023/10/15 09:45:57;;;;;;;2.57;0.70;;;;;;;7.85;100.00;102009.53;5119916;27;20031;-85
2023/10/15 09:48:29;;;;;;;2.63;0.73;;;;;;;7.84;100.00;102024.03;5121333;27;20379;-86
2023/10/15 09:50:59;;;;;;;1.83;0.60;;;;;;;7.68;100.00;102023.03;5103098;27;20479;-85
2023/10/15 09:53:34;;;;;;;3.60;0.55;;;;;;;7.57;100.00;102020.66;5119477;27;20118;-85
2023/10/15 09:56:17;;;;;;;;;;;;;;;;;;;;;
2023/10/15 09:58:44;;;;;;;5.13;0.40;;;;;;;7.44;100.00;102025.69;5137211;27;20035;-85
2023/10/15 10:01:25;;;;;;;3.25;0.45;;;;;;;7.33;100.00;102027.69;5119338;27;20047;-86
2023/10/15 10:04:23;;;;;;;4.22;0.38;;;;;;;7.51;100.00;102024.03;5119734;27;20023;-85
2023/10/15 10:07:10;;;;;;;2.15;0.40;;;;;;;7.63;100.00;102022.72;5119028;27;20043;-85
2023/10/15 10:09:52;;;;;;;3.63;0.40;;;;;;;7.72;100.00;102032.50;5137540;27;20031;-85
2023/10/15 10:13:02;;;;;;;4.40;0.63;;;;;;;7.84;100.00;102038.41;5118452;27;20063;-85
2023/10/15 10:15:34;;;;;;;2.50;0.45;;;;;;;8.18;100.00;102039.22;5118663;27;20494;-86
2023/10/15 10:18:04;;;;;;;4.18;0.70;;;;;;;7.99;100.00;102040.47;5118490;27;20050;-85
2023/10/15 10:20:37;;;;;;;2.35;0.52;;;;;;;7.88;100.00;102047.03;5119294;27;20043;-85
2023/10/15 10:26:27;;;;;;;2.40;0.40;;;;;;;7.88;100.00;102049.72;5137002;27;20544;-86
2023/10/15 10:28:55;;;;;;;1.88;0.55;;;;;;;8.05;100.00;102059.53;5118581;27;20081;-86
2023/10/15 10:31:24;;;;;;;3.38;0.43;;;;;;;8.16;100.00;102057.50;5101814;27;20035;-85
2023/10/15 10:33:54;;;;;;;1.52;0.40;;;;;;;8.28;100.00;102063.41;5118875;27;20078;-85
2023/10/15 10:36:27;;;;;;;2.70;0.80;;;;;;;8.39;100.00;102060.34;5102026;27;20049;-85
2023/10/15 10:45:55;;;;;;;1.63;0.43;;;;;;;9.46;100.00;102060.84;5136758;27;20034;-85
2023/10/15 10:48:28;;;;;;;3.08;0.60;;;;;;;9.75;100.00;102059.28;5125178;27;20050;-86
2023/10/15 10:51:08;;;;;;;1.45;0.47;;;;;;;10.08;100.00;102058.19;5136165;27;20039;-86
2023/10/15 10:53:34;;;;;;;3.27;0.60;;;;;;;10.36;100.00;102058.47;5117996;27;20039;-86
2023/10/15 10:56:04;;;;;;;5.88;0.50;;;;;;;10.45;100.00;102059.25;5118367;27;20054;-86
2023/10/15 10:58:30;;;;;;;2.45;0.43;;;;;;;10.58;100.00;102062.16;5117603;27;20046;-86
2023/10/15 11:01:01;;;;;;;3.05;0.47;;;;;;;10.63;100.00;102067.88;5136425;27;20036;-86
2023/10/15 11:03:38;;;;;;;3.63;0.50;;;;;;;10.42;100.00;102063.16;5117310;27;20035;-86
2023/10/15 11:09:37;;;;;;;4.45;0.55;;;;;;;9.79;100.00;102070.63;5135963;27;20038;-86
2023/10/15 11:12:10;;;;;;;5.38;0.60;;;;;;;9.45;100.00;102066.44;5117366;27;20039;-86
2023/10/15 11:14:36;;;;;;;5.45;1.25;;;;;;;9.24;100.00;102075.16;5118050;27;20043;-86
2023/10/15 11:17:04;;;;;;;3.50;0.53;;;;;;;9.20;100.00;102069.28;5118714;27;20079;-86
2023/10/15 11:19:33;;;;;;;3.38;0.90;;;;;;;9.32;100.00;102071.59;5118169;27;20092;-85
2023/10/15 11:21:58;;;;;;;3.63;0.47;;;;;;;9.57;100.00;102064.19;5117623;27;20042;-86
2023/10/15 11:24:26;;;;;;;4.17;0.63;;;;;;;9.74;100.00;102070.31;5117139;27;20463;-85
2023/10/15 11:26:56;;;;;;;5.50;0.60;;;;;;;9.76;100.00;102066.41;5100971;27;20375;-85
2023/10/15 11:29:23;;;;;;;4.88;0.50;;;;;;;10.10;100.00;102064.31;5117953;27;20066;-85
2023/10/15 11:31:55;;;;;;;3.85;0.68;;;;;;;10.39;100.00;102070.84;5100171;27;20070;-86
2023/10/15 11:34:24;;;;;;;2.93;0.43;;;;;;;10.56;100.00;102077.81;5135371;27;20047;-86
2023/10/15 11:37:12;;;;;;;1.58;0.47;;;;;;;10.77;100.00;102090.63;5134920;27;20467;-85
2023/10/15 11:43:19;;;;;;;3.22;0.50;;;;;;;11.44;100.00;102091.53;5135276;27;20042;-85
2023/10/15 11:49:45;;;;;;;2.23;0.70;;;;;;;18.96;86.85;102073.94;5135380;27;20116;-86
2023/10/15 12:10:16;;;;;;;2.13;1.20;;;;;;;26.94;43.25;102069.63;5133878;27;20394;-86
2023/10/15 12:47:50;;;;;;;3.60;0.85;;;;;;;21.88;39.79;102059.44;5136542;27;20158;-87
2023/10/15 14:36:07;;;;;;;1.43;0.50;;;;;;;10.92;100.00;102098.78;5119184;27;20046;-87
2023/10/15 21:08:32;;;;;;;3.92;1.55;;;;;;;5.46;100.00;102312.50;5093923;28;20617;-85
2023/10/15 21:15:15;;;;;;;4.55;2.03;;;;;;;5.33;100.00;102311.97;5097331;28;20490;-85
2023/10/15 22:25:30;;;;;;;8.00;3.90;;;;;;;4.35;100.00;102296.69;5137944;27;20170;-86
2023/10/15 22:56:06;;;;;;;13.80;4.57;;;;;;;4.04;100.00;102285.19;5135838;27;20043;-85
2023/10/15 23:03:40;;;;;;;8.38;4.93;;;;;;;3.96;100.00;102285.88;5136225;27;20445;-86
2023/10/15 23:26:55;;;;;;;7.82;4.38;;;;;;;3.78;100.00;102277.63;5095144;28;20388;-85
2023/10/15 23:45:45;;;;;;;6.35;4.63;;;;;;;3.70;100.00;102277.44;5094576;28;20040;-85
